GW1714 Weather Reports


Display with metric or nautical units.
time (UTC)temp
F
wind
direction
speed
MPH
gust
MPH
rain 1hr
in
rain 24hr
in
rain mn
in
humidity
%
barometer
mb
20240618001852 81 353 0.0 0.0 0.00 0.04 0.04 74 1036.5
20240618001352 82 353 0.0 0.0 0.00 0.04 0.04 73 1036.4
20240618000850 82 353 0.0 0.0 0.00 0.04 0.04 73 1036.4
20240618000349 82 353 0.0 2.0 0.00 0.04 0.04 73 1036.5
20240617235846 82 337 0.0 2.0 0.00 0.04 0.04 76 1036.4
20240617235346 83 350 3.0 3.0 0.00 0.04 0.04 76 1036.4
20240617234845 83 16 2.0 3.0 0.00 0.04 0.04 81 1036.5
20240617234343 83 351 2.0 2.0 0.00 0.04 0.04 80 1036.1
20240617233841 84 340 0.0 2.0 0.00 0.04 0.04 78 1036.0
20240617233339 84 328 0.0 0.0 0.00 0.04 0.04 76 1036.0
20240617232838 84 328 0.0 2.0 0.00 0.04 0.04 78 1036.0
20240617232336 84 331 0.0 0.0 0.00 0.04 0.04 77 1036.0
20240617231835 84 331 0.0 0.0 0.00 0.04 0.04 76 1036.3
20240617231334 84 331 0.0 0.0 0.00 0.04 0.04 77 1036.3
20240617230834 85 325 0.0 2.0 0.00 0.04 0.04 77 1036.0
20240617230333 86 325 0.0 0.0 0.00 0.04 0.04 74 1036.1
20240617225832 86 325 0.0 0.0 0.00 0.04 0.04 74 1036.3
20240617225331 86 325 0.0 0.0 0.00 0.04 0.04 75 1036.1
20240617224829 86 324 0.0 2.0 0.00 0.04 0.04 74 1036.4
20240617224326 86 327 2.0 2.0 0.00 0.04 0.04 73 1036.1
20240617223825 85 325 0.0 1.0 0.00 0.04 0.04 74 1035.9
20240617223323 86 315 2.0 3.0 0.00 0.04 0.04 72 1035.9
20240617222823 87 325 1.0 1.0 0.00 0.04 0.04 72 1036.3
20240617222322 87 315 0.0 2.0 0.00 0.04 0.04 71 1036.3
20240617221822 87 337 0.0 2.0 0.00 0.04 0.04 71 1036.3
20240617221321 86 306 0.0 1.0 0.00 0.04 0.04 71 1036.0
20240617220820 86 300 0.0 2.0 0.00 0.04 0.04 70 1035.9
20240617220319 86 315 2.0 2.0 0.00 0.04 0.04 69 1036.3
20240617215816 89 345 0.0 1.0 0.00 0.04 0.04 68 1036.0
20240617215315 90 270 0.0 1.0 0.00 0.04 0.04 65 1036.3
20240617214814 91 308 0.0 2.0 0.00 0.04 0.04 65 1036.1
20240617214313 90 261 0.0 1.0 0.00 0.04 0.04 64 1036.3
20240617213812 89 270 0.0 1.0 0.00 0.04 0.04 66 1036.3
20240617213311 87 330 2.0 2.0 0.00 0.04 0.04 69 1036.1
20240617212811 87 279 0.0 3.0 0.00 0.04 0.04 68 1036.5
20240617212308 87 350 3.0 3.0 0.00 0.04 0.04 69 1036.5
20240617211806 88 345 0.0 1.0 0.00 0.04 0.04 67 1036.8
20240617211304 87 312 2.0 3.0 0.00 0.04 0.04 69 1036.8
20240617210802 86 338 2.0 2.0 0.00 0.04 0.04 70 1036.7
20240617210300 85 294 0.0 2.0 0.00 0.04 0.04 70 1036.9
20240617205756 85 0 0.0 0.0 0.00 0.04 0.04 74 1036.8
20240617205255 84 337 0.0 2.0 0.00 0.04 0.04 73 1037.4
20240617204754 84 355 2.0 3.0 0.00 0.04 0.04 71 1037.1
20240617204250 86 325 1.0 3.0 0.00 0.04 0.04 70 1037.2
20240617203750 85 324 2.0 3.0 0.00 0.04 0.04 69 1037.3
20240617203249 84 352 0.0 1.0 0.00 0.04 0.04 73 1037.3
20240617202745 84 90 0.0 0.0 0.00 0.04 0.04 73 1037.2
20240617202244 85 90 0.0 2.0 0.00 0.04 0.04 70 1037.5
20240617201743 87 334 1.0 3.0 0.00 0.04 0.04 69 1037.4
20240617201241 88 254 0.0 1.0 0.00 0.04 0.04 70 1037.5
20240617200739 85 279 0.0 1.0 0.00 0.04 0.04 75 1037.6
20240617200238 83 346 1.0 1.0 0.00 0.04 0.04 76 1037.7
20240617195736 84 342 0.0 2.0 0.00 0.04 0.04 75 1037.5
20240617195234 85 340 1.0 2.0 0.00 0.04 0.04 72 1037.4
20240617194733 86 270 0.0 3.0 0.00 0.04 0.04 75 1037.6
20240617194231 85 346 0.0 3.0 0.00 0.04 0.04 75 1037.6
20240617193730 84 352 0.0 3.0 0.00 0.04 0.04 76 1037.7
20240617193229 85 344 0.0 2.0 0.00 0.04 0.04 76 1037.9
20240617192727 85 342 2.0 3.0 0.00 0.04 0.04 74 1037.8
20240617192224 86 337 0.0 0.0 0.00 0.04 0.04 76 1037.8
20240617191722 84 354 1.0 3.0 0.00 0.04 0.04 78 1038.1
20240617191220 83 355 2.0 4.0 0.00 0.04 0.04 80 1038.0
20240617190718 85 12 1.0 3.0 0.00 0.04 0.04 79 1038.2
20240617190217 84 23 3.0 3.0 0.00 0.04 0.04 78 1038.1
20240617185715 83 0 0.0 2.0 0.00 0.04 0.04 77 1038.1
20240617185214 82 14 1.0 3.0 0.00 0.04 0.04 79 1038.4
20240617184712 81 32 0.0 4.0 0.00 0.04 0.04 78 1038.5
20240617184210 82 0 2.0 3.0 0.00 0.04 0.04 82 1038.6
20240617183709 81 353 1.0 2.0 0.00 0.04 0.04 82 1038.5
20240617183207 78 187 0.0 3.0 0.00 0.04 0.04 85 1038.9
20240617182705 78 21 0.0 3.0 0.00 0.04 0.04 88 1039.0
20240617182203 79 18 2.0 4.0 0.00 0.04 0.04 90 1038.8
20240617181702 79 17 2.0 3.0 0.00 0.04 0.04 91 1039.0
20240617181200 78 0 5.0 5.0 0.00 0.04 0.04 90 1039.0
20240617180659 77 180 0.0 0.0 0.00 0.04 0.04 91 1038.9
20240617180157 75 23 0.0 2.0 0.00 0.04 0.04 91 1039.4
20240617175656 76 20 1.0 3.0 0.00 0.04 0.04 93 1039.1
20240617175154 75 0 2.0 3.0 0.00 0.04 0.04 93 1039.4
20240617174653 75 342 2.0 2.0 0.09 0.04 0.04 92 1039.2
20240617174152 76 355 2.0 2.0 0.18 0.04 0.04 92 1039.3
20240617173651 76 345 0.0 2.0 0.18 0.03 0.03 91 1039.2
20240617173151 77 351 2.0 5.0 0.09 0.01 0.01 90 1039.7
20240617172650 80 350 2.0 4.0 0.00 0.00 0.00 85 1039.1
20240617172149 83 14 0.0 2.0 0.00 0.00 0.00 78 1039.2
20240617171647 83 145 0.0 2.0 0.00 0.00 0.00 76 1039.2
20240617171144 84 160 1.0 2.0 0.00 0.00 0.00 75 1039.3
20240617170643 84 187 1.0 2.0 0.00 0.00 0.00 73 1039.0
20240617170141 85 203 0.0 2.0 0.00 0.00 0.00 73 1039.1
20240617165640 86 195 0.0 1.0 0.00 0.00 0.00 72 1039.2
20240617165138 85 228 0.0 3.0 0.00 0.00 0.00 74 1039.3
20240617164637 85 180 2.0 2.0 0.00 0.00 0.00 73 1039.2
20240617164135 85 174 0.0 3.0 0.00 0.00 0.00 74 1039.3
20240617163633 84 203 0.0 2.0 0.00 0.00 0.00 73 1039.2
20240617163132 84 166 0.0 2.0 0.00 0.00 0.00 72 1039.2
20240617162626 84 15 0.0 1.0 0.00 0.00 0.00 71 1039.0
20240617162125 83 172 0.0 2.0 0.00 0.00 0.00 73 1039.3
20240617161624 83 180 1.0 2.0 0.00 0.00 0.00 74 1039.2
20240617161123 83 270 0.0 0.0 0.00 0.00 0.00 74 1039.2
20240617160622 83 186 1.0 2.0 0.00 0.00 0.00 73 1039.4
20240617160119 84 180 1.0 1.0 0.00 0.00 0.00 72 1038.9
20240617155616 84 99 0.0 3.0 0.00 0.00 0.00 72 1039.3
20240617155112 83 23 0.0 1.0 0.00 0.00 0.00 71 1039.1
20240617154525 82 190 2.0 2.0 0.00 0.00 0.00 75 1039.2
20240617154023 83 180 0.0 0.0 0.00 0.00 0.00 75 1039.3
20240617153522 82 180 0.0 1.0 0.00 0.00 0.00 73 1039.4
20240617153020 82 180 0.0 1.0 0.00 0.00 0.00 77 1039.4
20240617152519 81 188 0.0 0.0 0.00 0.00 0.00 77 1039.3
20240617152018 81 188 0.0 1.0 0.00 0.00 0.00 79 1039.4
20240617151515 81 195 0.0 0.0 0.00 0.00 0.00 77 1039.2
20240617151015 81 195 0.0 0.0 0.00 0.00 0.00 78 1039.3
20240617150512 80 188 0.0 0.0 0.00 0.00 0.00 79 1039.4
20240617150007 80 144 0.0 2.0 0.00 0.00 0.00 79 1039.3
20240617145505 81 102 0.0 2.0 0.00 0.00 0.00 78 1039.2
20240617145003 80 154 2.0 2.0 0.00 0.00 0.00 79 1039.3
20240617144502 80 151 0.0 1.0 0.00 0.00 0.00 80 1039.3
20240617144000 80 148 0.0 2.0 0.00 0.00 0.00 80 1039.2
20240617143459 79 157 0.0 1.0 0.00 0.00 0.00 79 1039.1
20240617142957 79 180 0.0 0.0 0.00 0.00 0.00 79 1039.0
20240617142456 79 157 0.0 1.0 0.00 0.00 0.00 80 1039.0
20240617141955 79 180 0.0 0.0 0.00 0.00 0.00 81 1039.1
20240617141454 79 180 0.0 0.0 0.00 0.00 0.00 80 1039.1
20240617140954 78 180 0.0 2.0 0.00 0.00 0.00 81 1039.2
20240617140453 78 160 0.0 1.0 0.00 0.00 0.00 82 1039.1
20240617135952 78 180 0.0 0.0 0.00 0.00 0.00 83 1039.2
20240617135452 78 180 0.0 0.0 0.00 0.00 0.00 82 1039.0
20240617134952 78 187 0.0 1.0 0.00 0.00 0.00 83 1039.1
20240617134451 77 186 0.0 1.0 0.00 0.00 0.00 84 1039.0
20240617133948 78 180 0.0 1.0 0.00 0.00 0.00 84 1039.3
20240617133446 77 187 0.0 1.0 0.00 0.00 0.00 84 1039.1
20240617132946 77 180 0.0 1.0 0.00 0.00 0.00 84 1039.0
20240617132446 77 188 0.0 0.0 0.00 0.00 0.00 86 1039.1
20240617131944 77 172 0.0 1.0 0.00 0.00 0.00 86 1039.2
20240617131443 76 180 0.0 1.0 0.00 0.00 0.00 87 1039.3
20240617130941 76 165 0.0 0.0 0.00 0.00 0.00 88 1039.2
20240617130441 76 165 0.0 0.0 0.00 0.00 0.00 88 1039.0
20240617125940 76 165 0.0 1.0 0.00 0.00 0.00 89 1039.3
20240617125438 75 180 0.0 0.0 0.00 0.00 0.00 91 1039.3
20240617124937 75 180 0.0 0.0 0.00 0.00 0.00 91 1039.2
20240617124435 75 180 0.0 0.0 0.00 0.00 0.00 91 1039.2
20240617123933 74 180 0.0 0.0 0.00 0.00 0.00 91 1039.0
20240617123431 74 170 0.0 2.0 0.00 0.00 0.00 91 1039.0
20240617122931 74 180 0.0 0.0 0.00 0.00 0.00 91 1039.1
20240617122430 74 180 0.0 0.0 0.00 0.00 0.00 91 1039.2
20240617121928 73 164 0.0 2.0 0.00 0.00 0.00 91 1039.1
20240617121427 73 180 0.0 0.0 0.00 0.00 0.00 92 1039.0
20240617120925 72 180 0.0 2.0 0.00 0.00 0.00 93 1038.9
20240617120424 72 189 2.0 2.0 0.00 0.00 0.00 93 1038.9
20240617115922 72 180 0.0 2.0 0.00 0.00 0.00 93 1038.9
20240617115422 72 184 2.0 2.0 0.00 0.00 0.00 93 1038.7
20240617114921 72 195 1.0 1.0 0.00 0.00 0.00 92 1038.8
20240617114420 72 0 0.0 2.0 0.00 0.00 0.00 92 1038.6
20240617113918 72 346 1.0 3.0 0.00 0.00 0.00 92 1038.6
20240617113416 72 337 1.0 2.0 0.00 0.00 0.00 93 1038.7
20240617112914 72 194 0.0 1.0 0.00 0.00 0.00 93 1038.6
20240617112413 72 174 0.0 2.0 0.00 0.00 0.00 92 1038.8
20240617111913 72 169 2.0 2.0 0.00 0.00 0.00 91 1038.4
20240617111411 73 0 0.0 1.0 0.00 0.00 0.00 91 1038.5
20240617110910 73 324 0.0 2.0 0.00 0.00 0.00 91 1038.5
20240617110409 72 180 0.0 0.0 0.00 0.00 0.00 92 1038.4
20240617105908 72 348 0.0 2.0 0.00 0.00 0.00 92 1038.4
20240617105405 72 16 0.0 2.0 0.00 0.00 0.00 92 1038.4
20240617104904 72 180 0.0 0.0 0.00 0.00 0.00 92 1038.2
20240617104404 72 180 0.0 0.0 0.00 0.00 0.00 92 1038.2
20240617103904 72 187 0.0 1.0 0.00 0.00 0.00 91 1038.2
20240617103402 72 180 0.0 0.0 0.00 0.00 0.00 91 1038.2
20240617102901 73 346 1.0 2.0 0.00 0.00 0.00 90 1038.2
20240617102359 73 348 0.0 1.0 0.00 0.00 0.00 90 1038.1
20240617101856 73 0 0.0 0.0 0.00 0.00 0.00 90 1038.0
20240617101353 73 0 0.0 0.0 0.00 0.00 0.00 91 1038.0
20240617100853 73 352 0.0 0.0 0.00 0.00 0.00 91 1038.2
20240617100352 73 352 0.0 0.0 0.00 0.00 0.00 91 1037.9
20240617095850 72 352 0.0 0.0 0.00 0.00 0.00 92 1038.0
20240617095349 72 352 0.0 0.0 0.00 0.00 0.00 92 1037.8
20240617094848 72 341 2.0 2.0 0.00 0.00 0.00 91 1037.8
20240617094347 73 337 0.0 1.0 0.00 0.00 0.00 91 1037.8
20240617093846 73 12 0.0 0.0 0.00 0.00 0.00 91 1037.8
20240617093346 73 20 0.0 0.0 0.00 0.00 0.00 91 1037.8
20240617092842 73 20 0.0 0.0 0.00 0.00 0.00 91 1037.8
20240617092342 73 337 0.0 0.0 0.00 0.00 0.00 90 1037.7
20240617091840 73 342 1.0 3.0 0.00 0.00 0.00 89 1037.6
20240617091339 73 188 0.0 0.0 0.00 0.00 0.00 89 1037.4
20240617090836 73 188 0.0 1.0 0.00 0.00 0.00 88 1037.3
20240617090334 74 348 0.0 0.0 0.00 0.00 0.00 88 1037.3
20240617085832 74 120 0.0 1.0 0.00 0.00 0.00 87 1037.4
20240617085330 75 188 0.0 0.0 0.00 0.00 0.00 87 1037.1
20240617084830 74 353 0.0 0.0 0.00 0.00 0.00 86 1037.3
20240617084329 74 353 0.0 0.0 0.00 0.00 0.00 86 1037.2
20240617083827 74 353 0.0 0.0 0.00 0.00 0.00 85 1037.2
20240617083327 74 180 0.0 0.0 0.00 0.00 0.00 84 1037.3
20240617082827 74 180 0.0 0.0 0.00 0.00 0.00 85 1037.0
20240617082324 75 180 0.0 2.0 0.00 0.00 0.00 85 1037.1
20240617081824 75 0 0.0 1.0 0.00 0.00 0.00 84 1036.9
20240617081323 74 337 0.0 1.0 0.00 0.00 0.00 85 1037.0
20240617080822 75 339 0.0 3.0 0.00 0.00 0.00 86 1036.9
20240617080321 74 180 0.0 0.0 0.00 0.00 0.00 86 1036.8
20240617075820 76 180 0.0 0.0 0.00 0.00 0.00 84 1036.9
20240617075320 76 0 0.0 0.0 0.00 0.00 0.00 83 1036.7
20240617074818 76 0 0.0 0.0 0.00 0.00 0.00 82 1036.5
20240617074318 76 0 0.0 0.0 0.00 0.00 0.00 82 1036.7
20240617073817 76 0 0.0 0.0 0.00 0.00 0.00 81 1036.9
20240617073315 76 166 0.0 0.0 0.00 0.00 0.00 81 1036.7
20240617072813 76 166 0.0 0.0 0.00 0.00 0.00 81 1036.7
20240617072313 77 166 0.0 0.0 0.00 0.00 0.00 80 1036.8
20240617071812 77 172 0.0 0.0 0.00 0.00 0.00 78 1036.8
20240617071312 77 172 0.0 0.0 0.00 0.00 0.00 77 1036.7
20240617070810 77 106 0.0 1.0 0.00 0.00 0.00 77 1036.6
20240617070308 77 166 0.0 1.0 0.00 0.00 0.00 78 1036.7
20240617065807 78 180 0.0 1.0 0.00 0.00 0.00 78 1036.9
20240617065306 77 0 2.0 3.0 0.00 0.00 0.00 75 1036.8
20240617064805 78 346 0.0 0.0 0.00 0.00 0.00 75 1036.7
20240617064303 78 346 0.0 2.0 0.00 0.00 0.00 76 1036.9
20240617063801 78 17 0.0 2.0 0.00 0.00 0.00 76 1036.9
20240617063301 78 0 0.0 2.0 0.00 0.00 0.00 76 1036.8
20240617062758 78 81 0.0 3.0 0.00 0.00 0.00 75 1036.9
20240617062257 78 355 2.0 3.0 0.00 0.00 0.00 78 1037.0
20240617061756 77 101 0.0 2.0 0.00 0.00 0.00 77 1036.8
20240617061255 77 190 2.0 2.0 0.00 0.00 0.00 79 1036.8
20240617060752 78 180 1.0 2.0 0.00 0.00 0.00 76 1036.9
20240617060250 78 171 2.0 3.0 0.00 0.00 0.00 75 1036.9
20240617055748 78 194 0.0 2.0 0.00 0.00 0.00 74 1036.6
20240617055246 79 180 1.0 3.0 0.00 0.00 0.00 73 1036.8
20240617054746 79 124 0.0 2.0 0.00 0.00 0.00 73 1036.9
20240617054246 79 180 0.0 2.0 0.00 0.00 0.00 73 1036.7
20240617053745 79 0 0.0 0.0 0.00 0.00 0.00 74 1036.7
20240617053243 79 21 2.0 3.0 0.00 0.00 0.00 75 1036.8
20240617052739 78 0 0.0 2.0 0.00 0.00 0.00 76 1036.8
20240617052238 77 12 0.0 1.0 0.00 0.00 0.00 79 1036.9
20240617051737 77 337 0.0 1.0 0.00 0.00 0.00 78 1036.9
20240617051235 76 352 0.0 4.0 0.00 0.00 0.00 83 1036.8
20240617050729 77 356 2.0 2.0 0.00 0.00 0.00 82 1036.8
20240617050223 80 346 2.0 3.0 0.00 0.00 0.00 73 1036.8
20240617045722 79 340 1.0 1.0 0.00 0.00 0.00 73 1037.0
20240617045221 78 0 0.0 0.0 0.00 0.00 0.00 76 1037.3
20240617044720 78 353 0.0 1.0 0.00 0.00 0.00 78 1036.7
20240617044219 79 180 0.0 0.0 0.00 0.00 0.00 75 1037.1
20240617043718 79 180 0.0 0.0 0.00 0.00 0.00 75 1036.9
20240617043218 78 180 0.0 2.0 0.00 0.00 0.00 77 1036.8
20240617042718 77 342 0.0 0.0 0.00 0.00 0.00 78 1036.9
20240617042217 77 342 0.0 1.0 0.00 0.00 0.00 81 1036.9
20240617041716 78 354 0.0 2.0 0.00 0.00 0.00 79 1036.8
20240617041215 78 0 0.0 2.0 0.00 0.00 0.00 76 1036.8
20240617040714 79 12 1.0 2.0 0.00 0.00 0.00 76 1037.1
20240617040213 78 352 0.0 0.0 0.00 0.00 0.00 75 1036.9
20240617035713 78 15 0.0 0.0 0.00 0.00 0.00 76 1037.1
20240617035211 78 15 0.0 0.0 0.00 0.00 0.00 77 1036.9
20240617034710 78 15 0.0 0.0 0.00 0.00 0.00 78 1036.9
20240617034210 78 15 0.0 2.0 0.00 0.00 0.00 79 1036.8
20240617033706 78 6 0.0 3.0 0.00 0.00 0.00 77 1036.9
20240617033205 79 165 0.0 0.0 0.00 0.00 0.00 74 1036.8
20240617032703 79 151 1.0 1.0 0.00 0.00 0.00 74 1037.0
20240617032202 79 103 0.0 1.0 0.00 0.00 0.00 74 1037.0
20240617031700 79 0 0.0 0.0 0.00 0.00 0.00 75 1036.8
20240617031158 79 0 0.0 0.0 0.00 0.00 0.00 75 1036.7
20240617030657 78 0 0.0 0.0 0.00 0.00 0.00 76 1037.1
20240617030155 78 0 0.0 0.0 0.00 0.00 0.00 80 1036.8
20240617025653 79 352 0.0 0.0 0.00 0.00 0.00 75 1036.8
20240617025151 78 352 0.0 2.0 0.00 0.00 0.00 78 1036.9
20240617024650 77 345 0.0 0.0 0.00 0.00 0.00 80 1036.9
20240617024149 78 356 2.0 3.0 0.00 0.00 0.00 81 1037.1
20240617023648 78 352 0.0 1.0 0.00 0.00 0.00 80 1037.0
20240617023147 79 345 0.0 0.0 0.00 0.00 0.00 76 1036.7
20240617022646 79 345 0.0 0.0 0.00 0.00 0.00 79 1036.8
20240617022145 79 345 0.0 1.0 0.00 0.00 0.00 79 1036.9
20240617021644 79 0 0.0 0.0 0.00 0.00 0.00 79 1036.8
20240617021142 79 0 0.0 0.0 0.00 0.00 0.00 77 1036.8
20240617020641 80 0 0.0 0.0 0.00 0.00 0.00 75 1036.7
20240617020141 80 0 0.0 0.0 0.00 0.00 0.00 73 1036.7
20240617015640 80 0 0.0 0.0 0.00 0.00 0.00 72 1036.6
20240617015138 80 0 0.0 0.0 0.00 0.00 0.00 71 1036.6
20240617014638 80 0 0.0 0.0 0.00 0.00 0.00 72 1036.5
20240617014136 80 0 0.0 0.0 0.00 0.00 0.00 74 1036.3
20240617013635 80 0 0.0 0.0 0.00 0.00 0.00 72 1036.5
20240617013134 80 0 0.0 2.0 0.00 0.00 0.00 74 1036.5
20240617012633 79 353 1.0 2.0 0.00 0.00 0.00 76 1036.4
20240617012132 79 353 0.0 2.0 0.00 0.00 0.00 78 1036.6
20240617011630 81 342 1.0 2.0 0.00 0.00 0.00 75 1036.6
20240617011129 82 37 2.0 4.0 0.00 0.00 0.00 69 1036.6
20240617010629 81 40 0.0 0.0 0.00 0.00 0.00 71 1036.4
20240617010129 80 15 0.0 1.0 0.00 0.00 0.00 75 1036.5
20240617005627 80 0 0.0 0.0 0.00 0.00 0.00 78 1036.5
20240617005127 80 4 2.0 2.0 0.00 0.00 0.00 75 1036.5
20240617004626 80 172 0.0 0.0 0.00 0.00 0.00 74 1035.9
20240617004125 81 172 0.0 0.0 0.00 0.00 0.00 75 1036.1
20240617003625 81 172 0.0 0.0 0.00 0.00 0.00 74 1035.9
20240617003123 81 172 0.0 0.0 0.00 0.00 0.00 74 1035.8
20240617002618 81 172 0.0 0.0 0.00 0.00 0.00 73 1035.9
20240617002118 80 172 0.0 0.0 0.00 0.00 0.00 78 1035.9